Le Mars, IA (51031)

7:09 PM CDT on March 29, 2015 (GMT -0500)
NW Le Mars | | Change Station
CLOSE
Current Station
Personal Weather Station
Location: Le Mars, IA
Elevation: 1280 ft
Nearby Weather Stations
Active Advisory: Fire Weather Advisory Active Notice: Public Information Statement

Elev 1280 ft 42.82 °N, 96.19 °W | Updated 13 seconds ago

Clear
Clear
56.5 °F
Feels Like 56.5 °F
N
9.2
Wind Variable Wind from NNE
Gusts 9.2 mph

Today
High -- | Low -- °F
--% Chance of Precip.
Yesterday
High -- | Low -- °F
Precip. -- in
7:12 AM 7:47 PM
Waxing Gibbous, 75% visible
Pressure 30.04 in
Visibility 10.0 miles
Clouds Clear
Dew Point 28 °F
Humidity 33%
Rainfall 0.00 in
Snow Depth Not available.
UV 0 out of 12
Pollen 7.70 out of 12
Air Quality Not available.
Flu Activity Not available.
METAR KLRJ 292355Z AUTO 33017G25KT 10SM CLR 15/M06 A3004 RMK AO2

More Conditions Fewer Conditions

Pressure 30.04 in
Visibility 10.0 miles
Clouds Clear
Dew Point 28 °F
Humidity 33%
Rainfall 0.00 in
Snow Depth Not available.
UV 0 out of 12
Pollen 7.70 out of 12
Air Quality Not available.
Flu Activity Not available.
METAR KLRJ 292355Z AUTO 33017G25KT 10SM CLR 15/M06 A3004 RMK AO2

More Conditions Fewer Conditions

10-Day Weather Forecast

Almanac

Astronomy

Mar. 29, 2015 Rise Set
Actual Time
Civil Twilight
Nautical Twilight
Astronomical Twilight
Moon
Length of Visible Light
Length of Day
Tomorrow will be .
, % of the Moon is Illuminated

Today's Extremes

State Highs State Lows

Community

WunderPhotos

Upload Photos

1,809,381 photos uploaded!

WunderBlogs® & News

Nearby

Air Quality

  Air Quality AQ Index Pollutant
Not available.

Snow Depth

Station Depth Elevation

Earthquake Activity

City Distance Mag. Time & Date
Minimum magnitude displayed is 2.5.

Coastal Water Temperatures

Place Temperature

Stations

Nearby Weather Stations

Station Location Temp. Windchill Dew Point Humidity Wind Precip. Elev Updated Type
                   
Fire Weather Advisory
Statement as of 6:57 PM CDT on March 29, 2015

... Red flag warning will expire at 7 PM CDT this evening for
strong wind and low relative humidity for fire weather zones
249... 255... 256... 258 and 300...

Winds will continue to diminish and relative humidity values will
climb through the evening.